Time;durP1;ratioP1;P1;durP2;ratioP2;P2;SDS_P1;SDS_P2;PMS_P1;PMS_P2;Temp;Humidity;BMP_temperature;BMP_pressure;BME280_temperature;BME280_humidity;BME280_pressure;Samples;Min_cycle;Max_cycle;Signal;HPM_P1;HPM_P2
2022/10/27 00:00:26;;;;;;;0.50;0.50;;;;;;;13.23;87.51;97668.81;29395;202;63009;-58
2022/10/27 00:00:58;;;;;;;0.50;0.50;;;;;;;13.23;87.56;97672.34;29395;287;63004;-58
2022/10/27 00:01:29;;;;;;;0.50;0.50;;;;;;;13.24;87.61;97671.25;29395;233;63009;-58
2022/10/27 00:02:00;;;;;;;0.50;0.50;;;;;;;13.25;87.20;97667.44;29395;224;63004;-59
2022/10/27 00:02:32;;;;;;;0.40;0.40;;;;;;;13.24;87.35;97668.53;29395;323;63009;-59
2022/10/27 00:03:03;;;;;;;0.50;0.50;;;;;;;13.25;87.26;97672.88;29395;209;63012;-58
2022/10/27 00:03:34;;;;;;;0.50;0.50;;;;;;;13.24;87.47;97665.81;29395;209;63009;-59
2022/10/27 00:04:06;;;;;;;0.50;0.50;;;;;;;13.24;87.46;97670.44;29394;244;64009;-58
2022/10/27 00:04:37;;;;;;;0.40;0.40;;;;;;;13.25;87.58;97672.88;29395;220;63009;-58
2022/10/27 00:05:09;;;;;;;0.45;0.45;;;;;;;13.25;87.30;97672.88;29395;197;63005;-58
2022/10/27 00:05:40;;;;;;;0.50;0.50;;;;;;;13.26;87.50;97673.69;29395;236;63026;-58
2022/10/27 00:06:11;;;;;;;0.50;0.50;;;;;;;13.25;87.34;97672.88;29395;262;63005;-58
2022/10/27 00:06:43;;;;;;;0.50;0.50;;;;;;;13.25;87.66;97670.16;29395;234;63009;-58
2022/10/27 00:07:14;;;;;;;0.50;0.50;;;;;;;13.26;87.18;97679.13;29395;213;63004;-58
2022/10/27 00:07:45;;;;;;;0.50;0.50;;;;;;;13.25;87.53;97670.16;29395;217;63009;-59
2022/10/27 00:08:19;;;;;;;0.50;0.50;;;;;;;13.25;87.54;97664.69;29395;204;63004;-59
2022/10/27 00:08:52;;;;;;;0.50;0.50;;;;;;;13.24;87.22;97673.16;29395;226;63009;-58
2022/10/27 00:09:23;;;;;;;0.50;0.50;;;;;;;13.23;87.66;97672.34;29394;217;64008;-58
2022/10/27 00:09:54;;;;;;;0.50;0.50;;;;;;;13.23;87.40;97664.19;29395;272;63009;-59
2022/10/27 00:10:26;;;;;;;0.50;0.50;;;;;;;13.23;87.68;97669.63;29395;226;63009;-59
2022/10/27 00:10:59;;;;;;;0.50;0.50;;;;;;;13.24;87.66;97675.91;29395;211;63009;-58
2022/10/27 00:11:31;;;;;;;0.40;0.40;;;;;;;13.22;87.38;97673.47;29395;224;63010;-58
2022/10/27 00:12:04;;;;;;;0.50;0.50;;;;;;;13.23;87.54;97675.09;29395;202;63009;-58
2022/10/27 00:12:35;;;;;;;0.50;0.50;;;;;;;13.22;87.45;97668.00;29395;221;63005;-69
2022/10/27 00:13:07;;;;;;;0.50;0.50;;;;;;;13.22;87.86;97670.72;29395;291;63009;-59
2022/10/27 00:13:38;;;;;;;0.50;0.50;;;;;;;13.20;87.56;97664.75;29395;218;63005;-58
2022/10/27 00:14:10;;;;;;;0.40;0.40;;;;;;;13.19;87.78;97674.03;29395;211;63009;-58
2022/10/27 00:14:41;;;;;;;0.40;0.40;;;;;;;13.18;87.65;97666.97;29394;204;64009;-58
2022/10/27 00:15:13;;;;;;;0.50;0.50;;;;;;;13.17;87.67;97668.06;29395;367;63009;-58
2022/10/27 00:15:58;;;;;;;0.50;0.50;;;;;;;13.16;87.68;97669.19;29395;222;63004;-58
2022/10/27 00:16:32;;;;;;;0.50;0.50;;;;;;;13.16;87.88;97669.19;29395;205;63009;-58
2022/10/27 00:17:03;;;;;;;0.50;0.50;;;;;;;13.14;87.79;97671.38;29395;296;63004;-58
2022/10/27 00:17:34;;;;;;;0.50;0.50;;;;;;;13.13;88.05;97675.19;29395;257;63009;-59
2022/10/27 00:18:10;;;;;;;0.50;0.50;;;;;;;13.13;88.08;97669.75;29395;219;63005;-58
2022/10/27 00:18:43;;;;;;;0.50;0.50;;;;;;;13.12;88.26;97672.75;29395;203;63009;-60
2022/10/27 00:19:14;;;;;;;0.50;0.50;;;;;;;13.10;88.64;97667.59;29395;225;63005;-58
2022/10/27 00:19:46;;;;;;;0.50;0.50;;;;;;;13.08;88.78;97675.25;29394;209;64013;-58
2022/10/27 00:20:17;;;;;;;0.50;0.50;;;;;;;13.06;88.82;97674.72;29395;202;63005;-58
2022/10/27 00:20:59;;;;;;;0.50;0.50;;;;;;;13.03;89.40;97675.31;29395;198;63009;-58
2022/10/27 00:21:30;;;;;;;0.50;0.50;;;;;;;13.01;89.63;97675.59;29395;210;63005;-58
2022/10/27 00:22:02;;;;;;;0.50;0.50;;;;;;;12.98;90.35;97675.34;29395;219;63009;-58
2022/10/27 00:22:33;;;;;;;0.50;0.50;;;;;;;12.96;90.22;97681.09;29395;204;63004;-58
2022/10/27 00:23:05;;;;;;;0.50;0.50;;;;;;;12.92;90.32;97679.22;29395;216;63009;-58
2022/10/27 00:23:37;;;;;;;0.50;0.50;;;;;;;12.91;90.55;97683.03;29395;214;63004;-58
2022/10/27 00:24:09;;;;;;;0.50;0.50;;;;;;;12.89;90.39;97677.06;29395;222;63024;-58
2022/10/27 00:24:41;;;;;;;0.50;0.50;;;;;;;12.87;90.68;97676.56;29395;198;63004;-58
2022/10/27 00:25:12;;;;;;;0.50;0.50;;;;;;;12.84;90.58;97677.94;29394;197;64014;-58
2022/10/27 00:25:44;;;;;;;0.50;0.50;;;;;;;12.83;90.54;97681.75;29395;220;63005;-58
2022/10/27 00:26:20;;;;;;;0.45;0.45;;;;;;;12.82;90.47;97684.78;29395;219;63009;-58
2022/10/27 00:26:51;;;;;;;0.50;0.50;;;;;;;12.81;90.59;97683.16;29395;249;63013;-58
2022/10/27 00:27:23;;;;;;;0.40;0.40;;;;;;;12.80;90.17;97681.56;29395;203;63009;-59
2022/10/27 00:27:54;;;;;;;0.50;0.50;;;;;;;12.80;90.21;97684.28;29395;219;63007;-59
2022/10/27 00:28:26;;;;;;;0.50;0.50;;;;;;;12.78;90.62;97678.31;29395;200;63009;-58
2022/10/27 00:28:57;;;;;;;0.50;0.50;;;;;;;12.75;90.91;97685.94;29395;260;63005;-58
2022/10/27 00:29:29;;;;;;;0.50;0.50;;;;;;;12.73;91.03;97682.69;29394;207;64013;-58
2022/10/27 00:30:00;;;;;;;0.40;0.40;;;;;;;12.72;90.75;97686.50;29395;199;63004;-58
2022/10/27 00:30:34;;;;;;;0.50;0.50;;;;;;;12.71;90.80;97682.16;29395;206;63009;-58
2022/10/27 00:31:24;;;;;;;0.50;0.50;;;;;;;12.70;90.68;97682.44;29394;327;64009;-58
2022/10/27 00:31:55;;;;;;;0.50;0.50;;;;;;;12.68;90.52;97685.47;29395;232;63008;-58
2022/10/27 00:32:29;;;;;;;0.50;0.50;;;;;;;12.68;90.53;97685.47;29395;224;63004;-58
2022/10/27 00:33:01;;;;;;;0.70;0.70;;;;;;;12.67;90.62;97693.91;29395;254;63009;-58
2022/10/27 00:33:33;;;;;;;0.50;0.50;;;;;;;12.65;90.50;97686.03;29395;267;63005;-69
2022/10/27 00:34:04;;;;;;;0.50;0.50;;;;;;;12.65;90.48;97691.47;29394;262;64014;-58
2022/10/27 00:34:35;;;;;;;0.50;0.50;;;;;;;12.63;90.36;97688.22;29395;202;63005;-58
2022/10/27 00:35:07;;;;;;;0.50;0.50;;;;;;;12.63;90.61;97688.22;29395;272;63009;-59
2022/10/27 00:35:39;;;;;;;0.50;0.50;;;;;;;12.61;90.36;97684.97;29395;237;63008;-58
2022/10/27 00:36:16;;;;;;;0.50;0.50;;;;;;;12.60;90.29;97688.78;29394;263;64013;-59
2022/10/27 00:36:47;;;;;;;0.50;0.50;;;;;;;12.60;90.50;97688.78;29395;265;63004;-59
2022/10/27 00:37:19;;;;;;;0.50;0.50;;;;;;;12.59;90.95;97680.91;29395;202;63009;-59
2022/10/27 00:37:50;;;;;;;0.50;0.50;;;;;;;12.57;90.60;97689.38;29395;222;63004;-58
2022/10/27 00:38:22;;;;;;;0.50;0.50;;;;;;;12.57;90.55;97694.81;29395;203;63009;-59
2022/10/27 00:38:56;;;;;;;0.50;0.50;;;;;;;12.57;90.80;97694.81;29395;222;63004;-59
2022/10/27 00:39:28;;;;;;;0.50;0.50;;;;;;;12.56;90.90;97684.22;29395;196;63008;-58
2022/10/27 00:39:59;;;;;;;0.50;0.50;;;;;;;12.56;91.02;97693.19;29395;269;63004;-58
2022/10/27 00:40:37;;;;;;;0.50;0.50;;;;;;;12.55;90.73;97688.03;29394;197;64014;-58
2022/10/27 00:41:31;;;;;;;0.50;0.50;;;;;;;12.52;91.08;97683.97;29395;207;63005;-72
2022/10/27 00:42:02;;;;;;;0.50;0.50;;;;;;;12.53;91.25;97693.75;29395;203;63009;-58
2022/10/27 00:42:34;;;;;;;0.50;0.50;;;;;;;12.52;90.86;97686.69;29395;214;63000;-58
2022/10/27 00:43:31;;;;;;;0.50;0.50;;;;;;;12.52;91.17;97691.31;29395;220;63009;-58
2022/10/27 00:44:30;;;;;;;0.50;0.50;;;;;;;12.52;90.98;97692.13;29394;215;64013;-59
2022/10/27 00:45:01;;;;;;;0.50;0.50;;;;;;;12.50;91.20;97697.03;29395;224;63004;-57
2022/10/27 00:45:32;;;;;;;0.50;0.50;;;;;;;12.49;91.19;97692.69;29395;222;63009;-58
2022/10/27 00:46:46;;;;;;;0.50;0.50;;;;;;;12.49;91.28;97692.69;29394;243;64009;-59
2022/10/27 00:47:31;;;;;;;0.50;0.50;;;;;;;12.49;91.01;97686.44;29395;203;63008;-58
2022/10/27 00:48:09;;;;;;;0.50;0.50;;;;;;;12.48;91.22;97696.50;29395;216;63005;-58
2022/10/27 00:48:41;;;;;;;0.50;0.50;;;;;;;12.48;91.38;97690.25;29395;298;63009;-58
2022/10/27 00:49:17;;;;;;;0.50;0.50;;;;;;;12.48;91.44;97695.69;29394;268;64009;-69
2022/10/27 00:50:10;;;;;;;0.50;0.50;;;;;;;12.48;91.49;97696.50;29395;274;63019;-59
2022/10/27 00:50:42;;;;;;;0.50;0.50;;;;;;;12.48;91.49;97695.69;29395;220;63005;-58
2022/10/27 00:51:17;;;;;;;0.50;0.50;;;;;;;12.45;91.68;97697.13;29395;249;63009;-57
2022/10/27 00:51:54;;;;;;;0.50;0.50;;;;;;;12.43;91.82;97699.31;29394;199;64009;-58
2022/10/27 00:52:50;;;;;;;0.50;0.50;;;;;;;12.38;92.23;97692.00;29395;224;63009;-58
2022/10/27 00:53:22;;;;;;;0.50;0.50;;;;;;;12.37;92.72;97698.53;29395;206;63004;-58
2022/10/27 00:53:57;;;;;;;0.50;0.50;;;;;;;12.35;92.28;97697.19;29395;202;63008;-59
2022/10/27 00:54:36;;;;;;;0.50;0.50;;;;;;;12.32;92.80;97692.31;29395;202;63014;-57
2022/10/27 00:55:19;;;;;;;0.50;0.50;;;;;;;12.29;92.52;97692.88;29395;203;63008;-57
2022/10/27 00:55:53;;;;;;;0.50;0.50;;;;;;;12.28;92.79;97699.41;29394;206;64005;-59
2022/10/27 00:56:25;;;;;;;0.50;0.50;;;;;;;12.26;93.00;97693.44;29395;242;63009;-58
2022/10/27 00:56:57;;;;;;;0.50;0.50;;;;;;;12.24;93.11;97695.62;29394;207;64009;-56
2022/10/27 00:57:31;;;;;;;0.50;0.50;;;;;;;12.21;93.58;97693.47;29395;219;63009;-57
2022/10/27 00:58:05;;;;;;;0.50;0.50;;;;;;;12.17;93.85;97693.22;29394;222;64009;-58
2022/10/27 00:58:37;;;;;;;0.50;0.50;;;;;;;12.16;93.97;97697.03;29395;244;63009;-58
2022/10/27 00:59:09;;;;;;;0.50;0.50;;;;;;;12.14;94.36;97691.06;29395;215;63015;-57
2022/10/27 00:59:41;;;;;;;0.50;0.50;;;;;;;12.13;94.46;97694.09;29395;223;63009;-58
2022/10/27 01:00:14;;;;;;;0.50;0.50;;;;;;;12.10;94.58;97690.03;29395;225;63004;-58
2022/10/27 01:00:46;;;;;;;0.50;0.50;;;;;;;12.10;94.67;97694.66;29395;213;63009;-58
2022/10/27 01:01:18;;;;;;;0.43;0.43;;;;;;;12.07;94.90;97688.69;29394;199;64008;-57
2022/10/27 01:01:51;;;;;;;0.50;0.50;;;;;;;12.05;94.80;97690.06;29394;242;64013;-58
2022/10/27 01:02:23;;;;;;;0.50;0.50;;;;;;;12.02;94.96;97688.72;29395;232;63005;-57
2022/10/27 01:02:55;;;;;;;0.50;0.50;;;;;;;12.03;95.00;97689.53;29395;213;63009;-58
2022/10/27 01:03:27;;;;;;;0.50;0.50;;;;;;;12.01;95.30;97691.72;29395;226;63005;-57
2022/10/27 01:03:59;;;;;;;0.50;0.50;;;;;;;12.00;95.37;97695.53;29395;316;63009;-58
2022/10/27 01:04:54;;;;;;;0.40;0.40;;;;;;;11.99;95.67;97697.44;29395;250;63005;-58
2022/10/27 01:05:28;;;;;;;0.50;0.50;;;;;;;11.97;95.70;97694.19;29394;207;64013;-58
2022/10/27 01:06:00;;;;;;;0.50;0.50;;;;;;;11.96;95.64;97689.84;29395;241;63005;-58
2022/10/27 01:06:34;;;;;;;0.50;0.50;;;;;;;11.97;95.70;97688.75;29395;309;63014;-57
2022/10/27 01:07:05;;;;;;;0.50;0.50;;;;;;;11.97;95.85;97691.47;29395;198;63004;-59
2022/10/27 01:07:39;;;;;;;0.50;0.50;;;;;;;11.97;95.48;97691.47;29395;211;63009;-58
2022/10/27 01:08:13;;;;;;;0.50;0.50;;;;;;;11.97;95.77;97696.91;29395;232;63011;-57
2022/10/27 01:08:44;;;;;;;0.60;0.60;;;;;;;11.96;95.69;97689.84;29395;208;63008;-58
2022/10/27 01:09:17;;;;;;;0.50;0.50;;;;;;;11.94;95.74;97692.03;29395;225;63004;-57
2022/10/27 01:09:49;;;;;;;0.50;0.50;;;;;;;11.93;95.83;97693.13;29395;208;63009;-59
2022/10/27 01:10:21;;;;;;;0.50;0.50;;;;;;;11.92;95.98;97688.78;29394;260;64009;-58
2022/10/27 01:10:55;;;;;;;0.50;0.50;;;;;;;11.89;96.37;97683.91;29395;259;63009;-68
2022/10/27 01:11:30;;;;;;;0.50;0.50;;;;;;;11.87;96.74;97686.09;29395;220;63005;-58
2022/10/27 01:12:03;;;;;;;0.50;0.50;;;;;;;11.84;97.13;97692.09;29395;214;63009;-67
2022/10/27 01:12:35;;;;;;;0.50;0.50;;;;;;;11.83;96.93;97685.03;29394;216;64009;-57
2022/10/27 01:13:06;;;;;;;0.50;0.50;;;;;;;11.81;96.99;97687.22;29395;239;63009;-58
2022/10/27 01:13:38;;;;;;;0.50;0.50;;;;;;;11.79;97.04;97683.97;29395;212;63005;-57
2022/10/27 01:14:10;;;;;;;0.50;0.50;;;;;;;11.78;97.21;97690.53;29395;214;63009;-57
2022/10/27 01:14:42;;;;;;;0.50;0.50;;;;;;;11.77;97.41;97686.19;29395;202;63004;-57
2022/10/27 01:15:15;;;;;;;0.50;0.50;;;;;;;11.77;97.02;97685.38;29395;205;63009;-57
2022/10/27 01:16:35;;;;;;;0.50;0.50;;;;;;;11.72;97.45;97681.56;29395;202;63004;-58
2022/10/27 01:18:07;;;;;;;0.50;0.50;;;;;;;11.73;96.95;97680.47;29395;214;63009;-57
2022/10/27 01:19:11;;;;;;;0.50;0.50;;;;;;;11.71;96.59;97679.94;29394;226;64009;-57
2022/10/27 01:20:40;;;;;;;0.50;0.50;;;;;;;11.71;96.90;97687.25;29395;212;63009;-57
2022/10/27 01:21:53;;;;;;;0.50;0.50;;;;;;;11.67;96.92;97686.19;29395;203;63017;-59
2022/10/27 01:22:50;;;;;;;0.50;0.50;;;;;;;11.69;96.34;97689.44;29417;235;63004;-58
2022/10/27 01:23:52;;;;;;;0.50;0.50;;;;;;;11.71;96.16;97682.63;29395;275;63009;-58
2022/10/27 01:25:13;;;;;;;0.50;0.50;;;;;;;11.73;96.36;97677.75;29416;202;64008;-58
2022/10/27 01:26:31;;;;;;;0.50;0.50;;;;;;;11.77;96.12;97685.38;29395;200;63005;-58
2022/10/27 01:27:07;;;;;;;0.50;0.50;;;;;;;11.79;95.91;97677.72;29395;263;63019;-58
2022/10/27 01:28:15;;;;;;;0.50;0.50;;;;;;;11.81;95.85;97676.34;29395;237;63005;-58
2022/10/27 01:29:17;;;;;;;0.50;0.50;;;;;;;11.84;95.60;97685.84;29394;202;64013;-58
2022/10/27 01:30:05;;;;;;;0.50;0.50;;;;;;;11.86;95.70;97679.03;29417;212;63009;-58
2022/10/27 01:31:00;;;;;;;0.50;0.50;;;;;;;11.88;95.62;97684.19;29395;196;63004;-58
2022/10/27 01:31:42;;;;;;;0.50;0.50;;;;;;;11.90;95.56;97677.37;29394;204;64013;-58
2022/10/27 01:32:45;;;;;;;0.50;0.50;;;;;;;11.90;95.38;97685.53;29395;210;63009;-57
2022/10/27 01:33:27;;;;;;;0.50;0.50;;;;;;;11.90;95.47;97677.37;29395;222;63009;-57
2022/10/27 01:34:31;;;;;;;0.50;0.50;;;;;;;11.90;95.12;97677.37;29394;241;64009;-59
2022/10/27 01:35:30;;;;;;;0.50;0.50;;;;;;;11.88;95.79;97676.03;29394;240;64013;-58
2022/10/27 01:36:13;;;;;;;0.50;0.50;;;;;;;11.87;95.64;97680.66;29395;238;63005;-57
2022/10/27 01:37:20;;;;;;;0.50;0.50;;;;;;;11.86;94.92;97687.19;29395;252;63009;-57
2022/10/27 01:38:19;;;;;;;0.50;0.50;;;;;;;11.83;95.32;97685.03;29394;202;64009;-57
2022/10/27 01:39:20;;;;;;;0.50;0.50;;;;;;;11.81;95.00;97681.78;29395;210;63008;-58
2022/10/27 01:40:03;;;;;;;0.50;0.50;;;;;;;11.78;95.01;97676.94;29394;209;64002;-57
2022/10/27 01:41:06;;;;;;;0.50;0.50;;;;;;;11.75;95.12;97677.47;29395;247;63009;-57
2022/10/27 01:41:49;;;;;;;0.50;0.50;;;;;;;11.73;95.24;97685.91;29394;219;64009;-56
2022/10/27 01:42:46;;;;;;;0.50;0.50;;;;;;;11.70;95.74;97680.19;29395;230;63013;-57
2022/10/27 01:43:23;;;;;;;0.50;0.50;;;;;;;11.68;95.91;97688.62;29395;243;63005;-57
2022/10/27 01:43:58;;;;;;;0.50;0.50;;;;;;;11.67;96.19;97680.75;29395;197;63009;-57
2022/10/27 01:44:36;;;;;;;0.50;0.50;;;;;;;11.67;96.52;97686.19;29395;233;63011;-57
2022/10/27 01:45:13;;;;;;;0.50;0.50;;;;;;;11.65;96.33;97685.66;29395;245;63009;-58
2022/10/27 01:45:46;;;;;;;0.50;0.50;;;;;;;11.64;96.34;97686.75;29395;225;63004;-57
2022/10/27 01:46:19;;;;;;;0.50;0.50;;;;;;;11.64;96.56;97686.75;29394;241;64013;-57
2022/10/27 01:46:52;;;;;;;0.50;0.50;;;;;;;11.63;97.05;97690.56;29395;308;63004;-57
2022/10/27 01:47:29;;;;;;;0.50;0.50;;;;;;;11.63;97.38;97690.56;29395;214;63009;-57
2022/10/27 01:48:01;;;;;;;0.50;0.50;;;;;;;11.61;97.07;97687.31;29395;213;63017;-57
2022/10/27 01:48:35;;;;;;;0.40;0.40;;;;;;;11.60;97.38;97680.25;29395;212;63009;-58
2022/10/27 01:49:08;;;;;;;0.50;0.50;;;;;;;11.60;97.43;97685.69;29395;242;63005;-57
2022/10/27 01:49:41;;;;;;;0.40;0.40;;;;;;;11.59;97.58;97684.87;29395;198;63009;-57
2022/10/27 01:50:17;;;;;;;0.45;0.45;;;;;;;11.59;97.50;97678.63;29394;216;64009;-58
2022/10/27 01:50:48;;;;;;;0.50;0.50;;;;;;;11.56;97.33;97684.63;29395;205;63024;-57
2022/10/27 01:51:19;;;;;;;0.50;0.50;;;;;;;11.56;97.53;97679.19;29395;212;63005;-57
2022/10/27 01:51:51;;;;;;;0.50;0.50;;;;;;;11.55;97.61;97677.56;29395;242;63009;-57
2022/10/27 01:52:47;;;;;;;0.50;0.50;;;;;;;11.53;97.36;97691.41;29395;250;63004;-57
2022/10/27 01:53:18;;;;;;;0.50;0.50;;;;;;;11.53;97.85;97685.16;29395;210;63009;-57
2022/10/27 01:53:51;;;;;;;0.50;0.50;;;;;;;11.53;97.54;97685.16;29394;202;64009;-57
2022/10/27 01:54:22;;;;;;;0.50;0.50;;;;;;;11.53;97.56;97680.56;29395;253;63008;-57
2022/10/27 01:54:56;;;;;;;0.50;0.50;;;;;;;11.54;97.33;97686.78;29394;240;64009;-57
2022/10/27 01:56:14;;;;;;;0.50;0.50;;;;;;;11.56;97.33;97684.63;29394;270;64014;-57
2022/10/27 01:57:27;;;;;;;0.50;0.50;;;;;;;11.59;96.53;97684.06;29395;229;63005;-59
2022/10/27 01:58:33;;;;;;;0.50;0.50;;;;;;;11.61;96.27;97681.88;29395;241;63009;-59
2022/10/27 01:59:50;;;;;;;0.50;0.50;;;;;;;11.60;95.91;97682.97;29394;226;64009;-58
2022/10/27 02:00:21;;;;;;;0.50;0.50;;;;;;;11.60;96.01;97674.81;29395;197;63009;-57
2022/10/27 02:01:41;;;;;;;0.50;0.50;;;;;;;11.59;95.81;97678.63;29395;224;64008;-57
2022/10/27 02:02:30;;;;;;;0.50;0.50;;;;;;;11.58;95.89;97675.09;29396;204;63016;-58
2022/10/27 02:03:14;;;;;;;0.50;0.50;;;;;;;11.57;95.94;97668.03;29396;215;63005;-57
2022/10/27 02:03:58;;;;;;;0.60;0.60;;;;;;;11.59;95.83;97670.47;29396;227;63009;-59
2022/10/27 02:05:16;;;;;;;0.50;0.50;;;;;;;11.59;95.69;97673.19;29395;250;64000;-58
2022/10/27 02:06:25;;;;;;;0.50;0.50;;;;;;;11.60;95.79;97664.75;29396;254;63015;-57
2022/10/27 02:07:27;;;;;;;0.50;0.50;;;;;;;11.61;96.05;97663.66;29395;236;64009;-58
2022/10/27 02:08:04;;;;;;;;;;;;;;;11.63;95.92;97663.38;29997;983;6004;-58
2022/10/27 02:08:52;;;;;;;0.50;0.50;;;;;;;11.64;95.96;97659.56;29401;230;63018;-58
2022/10/27 02:09:51;;;;;;;0.50;0.50;;;;;;;11.65;95.99;97663.91;29395;469;64009;-57
2022/10/27 02:10:39;;;;;;;0.50;0.50;;;;;;;11.64;95.73;97665.00;29395;202;64014;-67
2022/10/27 02:11:12;;;;;;;0.50;0.50;;;;;;;11.64;96.21;97665.00;29396;197;63005;-58
2022/10/27 02:11:50;;;;;;;0.50;0.50;;;;;;;11.64;96.19;97670.44;29396;230;63009;-60
2022/10/27 02:12:30;;;;;;;0.50;0.50;;;;;;;11.63;96.59;97658.75;29395;253;64009;-58
2022/10/27 02:13:03;;;;;;;0.57;0.57;;;;;;;11.62;96.50;97667.19;29418;360;63009;-58
2022/10/27 02:13:38;;;;;;;0.50;0.50;;;;;;;11.62;96.84;97664.47;29396;262;63004;-59
2022/10/27 02:14:10;;;;;;;0.50;0.50;;;;;;;11.61;97.05;97666.38;29396;244;63009;-59
2022/10/27 02:14:42;;;;;;;0.50;0.50;;;;;;;11.60;97.12;97670.19;29396;262;63004;-58
2022/10/27 02:15:24;;;;;;;0.50;0.50;;;;;;;11.60;97.28;97669.37;29396;223;63015;-59
2022/10/27 02:16:01;;;;;;;0.50;0.50;;;;;;;11.58;97.34;97666.13;29395;207;64008;-58
2022/10/27 02:16:39;;;;;;;0.50;0.50;;;;;;;11.59;97.36;97667.75;29396;258;63016;-58
2022/10/27 02:17:12;;;;;;;0.50;0.50;;;;;;;11.56;97.43;97669.13;29396;262;63005;-59
2022/10/27 02:17:47;;;;;;;0.50;0.50;;;;;;;11.56;97.30;97668.31;29395;265;64014;-58
2022/10/27 02:18:28;;;;;;;0.50;0.50;;;;;;;11.57;97.18;97667.22;29396;207;63019;-59
2022/10/27 02:19:08;;;;;;;;;;;;;;;11.57;97.27;97667.22;29997;982;6005;-58
2022/10/27 02:19:44;;;;;;;0.50;0.50;;;;;;;11.59;97.25;97674.00;29401;244;63019;-58
2022/10/27 02:20:22;;;;;;;0.50;0.50;;;;;;;11.59;97.11;97668.56;29396;210;63005;-58
2022/10/27 02:20:59;;;;;;;0.50;0.50;;;;;;;11.60;96.62;97669.37;29395;211;64013;-59
2022/10/27 02:21:33;;;;;;;0.50;0.50;;;;;;;11.61;96.81;97669.09;29396;199;63010;-59
2022/10/27 02:22:05;;;;;;;0.50;0.50;;;;;;;11.62;96.83;97672.62;29396;265;63009;-71
2022/10/27 02:22:38;;;;;;;0.45;0.45;;;;;;;11.63;96.74;97668.81;29396;215;63004;-58
2022/10/27 02:23:15;;;;;;;0.50;0.50;;;;;;;11.65;96.58;97672.06;29396;243;63009;-57
2022/10/27 02:23:47;;;;;;;0.50;0.50;;;;;;;11.66;96.74;97674.50;29396;239;63004;-56
2022/10/27 02:24:20;;;;;;;0.50;0.50;;;;;;;11.67;97.05;97681.56;29396;244;63009;-57
2022/10/27 02:24:52;;;;;;;0.47;0.47;;;;;;;11.69;97.09;97678.56;29395;197;64009;-56
2022/10/27 02:25:32;;;;;;;0.50;0.50;;;;;;;11.69;97.00;97675.84;29396;266;63020;-58
2022/10/27 02:26:23;;;;;;;0.50;0.50;;;;;;;11.71;97.17;97685.34;29396;256;63005;-57
2022/10/27 02:27:04;;;;;;;0.45;0.45;;;;;;;11.72;97.15;97680.72;29418;209;63009;-57
2022/10/27 02:27:44;;;;;;;0.50;0.50;;;;;;;11.74;97.09;97681.28;29396;218;63005;-57
2022/10/27 02:28:21;;;;;;;0.50;0.50;;;;;;;11.76;96.91;97687.25;29396;203;63009;-57
2022/10/27 02:29:06;;;;;;;0.50;0.50;;;;;;;11.77;96.80;97680.75;29396;215;63004;-57
2022/10/27 02:29:46;;;;;;;0.50;0.50;;;;;;;11.77;96.52;97686.19;29395;285;64013;-57
2022/10/27 02:30:18;;;;;;;0.50;0.50;;;;;;;11.78;96.50;97682.38;29418;265;63014;-56
2022/10/27 02:30:50;;;;;;;0.50;0.50;;;;;;;11.78;96.56;97687.81;29396;217;63008;-56
2022/10/27 02:31:27;;;;;;;0.50;0.50;;;;;;;11.80;96.16;97685.59;29396;217;63004;-57
2022/10/27 02:32:03;;;;;;;0.50;0.50;;;;;;;11.80;96.34;97676.63;29395;240;64014;-56
2022/10/27 02:32:37;;;;;;;0.50;0.50;;;;;;;11.81;95.98;97681.78;29396;219;63015;-57
2022/10/27 02:33:09;;;;;;;0.50;0.50;;;;;;;11.79;96.26;97681.25;29396;263;63009;-57
2022/10/27 02:33:42;;;;;;;0.50;0.50;;;;;;;11.81;96.23;97679.06;29396;218;63005;-56
2022/10/27 02:34:16;;;;;;;0.50;0.50;;;;;;;11.80;96.09;97680.16;29396;202;63009;-57
2022/10/27 02:34:50;;;;;;;0.50;0.50;;;;;;;11.82;96.03;97682.59;29396;235;63005;-56
2022/10/27 02:35:22;;;;;;;0.50;0.50;;;;;;;11.80;95.78;97680.16;29395;224;64013;-71
2022/10/27 02:35:55;;;;;;;0.50;0.50;;;;;;;11.81;95.70;97681.78;29396;241;63004;-56
2022/10/27 02:36:27;;;;;;;0.50;0.50;;;;;;;11.82;95.77;97683.41;29396;203;63010;-56
2022/10/27 02:36:59;;;;;;;0.50;0.50;;;;;;;11.82;95.40;97677.97;29395;219;63999;-58
2022/10/27 02:37:37;;;;;;;0.50;0.50;;;;;;;11.82;95.30;97680.69;29396;261;63009;-59
2022/10/27 02:38:08;;;;;;;0.50;0.50;;;;;;;11.80;95.34;97677.44;29396;224;63004;-59
2022/10/27 02:38:40;;;;;;;0.50;0.50;;;;;;;11.81;95.69;97684.50;29396;203;63008;-70
2022/10/27 02:39:11;;;;;;;0.50;0.50;;;;;;;11.80;95.62;97684.78;29396;236;63004;-59
2022/10/27 02:39:42;;;;;;;0.50;0.50;;;;;;;11.78;95.86;97682.38;29396;263;63014;-59
2022/10/27 02:40:16;;;;;;;0.50;0.50;;;;;;;11.76;95.89;97684.53;29396;243;63005;-58
2022/10/27 02:40:48;;;;;;;0.50;0.50;;;;;;;11.75;96.00;97682.91;29396;218;63009;-59
2022/10/27 02:41:20;;;;;;;0.50;0.50;;;;;;;11.74;95.64;97681.28;29396;244;63005;-58
2022/10/27 02:41:54;;;;;;;0.50;0.50;;;;;;;11.73;95.91;97675.03;29396;283;63009;-59
2022/10/27 02:42:28;;;;;;;0.50;0.50;;;;;;;11.73;95.91;97685.09;29395;237;64009;-59
2022/10/27 02:42:59;;;;;;;0.50;0.50;;;;;;;11.74;95.82;97684.00;29396;211;63009;-58
2022/10/27 02:43:30;;;;;;;0.50;0.50;;;;;;;11.75;96.02;97677.47;29396;237;63004;-58
2022/10/27 02:44:04;;;;;;;0.50;0.50;;;;;;;11.74;96.13;97684.00;29396;260;63009;-58
2022/10/27 02:44:35;;;;;;;0.47;0.47;;;;;;;11.74;95.99;97676.66;29397;204;63004;-58
2022/10/27 02:45:07;;;;;;;0.45;0.45;;;;;;;11.74;95.97;97681.28;29397;208;63009;-58
2022/10/27 02:45:39;;;;;;;0.50;0.50;;;;;;;11.74;95.96;97673.12;29397;210;63010;-59
2022/10/27 02:46:10;;;;;;;0.50;0.50;;;;;;;11.73;95.60;97679.62;29397;215;63008;-70
2022/10/27 02:46:41;;;;;;;0.50;0.50;;;;;;;11.72;95.92;97678.84;29397;226;63009;-58
2022/10/27 02:47:13;;;;;;;0.50;0.50;;;;;;;11.73;95.95;97677.75;29397;197;63015;-60
2022/10/27 02:47:47;;;;;;;0.40;0.40;;;;;;;11.73;95.64;97674.22;29396;280;64009;-59
2022/10/27 02:48:19;;;;;;;0.50;0.50;;;;;;;11.73;95.86;97674.22;29397;197;63009;-59
2022/10/27 02:48:51;;;;;;;0.50;0.50;;;;;;;11.74;95.79;97673.12;29396;203;64005;-60
2022/10/27 02:49:26;;;;;;;0.50;0.50;;;;;;;11.72;95.55;97673.41;29397;214;63009;-58
2022/10/27 02:49:57;;;;;;;0.50;0.50;;;;;;;11.72;95.71;97667.16;29397;220;63014;-59
2022/10/27 02:50:28;;;;;;;0.40;0.40;;;;;;;11.72;95.41;97670.69;29397;230;63009;-58
2022/10/27 02:51:00;;;;;;;0.50;0.50;;;;;;;11.72;95.55;97667.16;29397;198;63004;-60
2022/10/27 02:51:31;;;;;;;0.50;0.50;;;;;;;11.72;95.50;97667.16;29397;204;63009;-59
2022/10/27 02:52:03;;;;;;;0.50;0.50;;;;;;;11.73;95.49;97674.22;29397;196;63004;-59
2022/10/27 02:52:34;;;;;;;0.50;0.50;;;;;;;11.70;95.17;97672.03;29397;258;63009;-59
2022/10/27 02:53:06;;;;;;;0.50;0.50;;;;;;;11.69;95.17;97675.84;29396;205;64009;-59
2022/10/27 02:53:37;;;;;;;0.50;0.50;;;;;;;11.66;95.33;97674.50;29397;316;63019;-58
2022/10/27 02:54:10;;;;;;;0.50;0.50;;;;;;;11.65;95.55;97672.06;29397;199;63007;-59
2022/10/27 02:54:46;;;;;;;0.45;0.45;;;;;;;11.63;95.58;97671.53;29397;233;63009;-69
2022/10/27 02:55:18;;;;;;;0.50;0.50;;;;;;;11.61;95.69;97676.44;29397;229;63005;-59
2022/10/27 02:55:49;;;;;;;0.50;0.50;;;;;;;11.60;95.96;97669.37;29397;228;63016;-59
2022/10/27 02:56:20;;;;;;;0.40;0.40;;;;;;;11.59;95.98;97673.19;29397;221;63005;-59
2022/10/27 02:56:51;;;;;;;0.50;0.50;;;;;;;11.57;96.27;97680.81;29397;197;63015;-59
2022/10/27 02:57:26;;;;;;;0.50;0.50;;;;;;;11.56;96.21;97673.75;29397;236;63005;-59
2022/10/27 02:57:57;;;;;;;0.43;0.43;;;;;;;11.56;96.22;97671.03;29397;307;63009;-59
2022/10/27 02:58:28;;;;;;;0.50;0.50;;;;;;;11.55;96.34;97670.22;29395;202;64009;-59
2022/10/27 02:59:00;;;;;;;0.50;0.50;;;;;;;11.55;96.14;97672.12;29397;230;63009;-59
2022/10/27 02:59:31;;;;;;;0.50;0.50;;;;;;;11.55;96.23;97674.84;29396;215;63004;-59
2022/10/27 03:00:05;;;;;;;0.50;0.50;;;;;;;11.55;95.96;97677.56;29396;226;63013;-59
2022/10/27 03:00:36;;;;;;;0.45;0.45;;;;;;;11.54;96.44;97678.66;29396;205;63004;-57
2022/10/27 03:01:07;;;;;;;0.50;0.50;;;;;;;11.54;96.40;97675.94;29397;244;63008;-57
2022/10/27 03:01:38;;;;;;;0.50;0.50;;;;;;;11.53;96.72;97674.31;29396;243;63004;-56